sensor_id;sensor_type;location;lat;lon;timestamp;P1;durP1;ratioP1;P2;durP2;ratioP2
43118;SDS011;28729;49.838;8.650;2024-01-15T00:00:38;35.08;;;12.48;;
43118;SDS011;28729;49.838;8.650;2024-01-15T00:04:41;27.88;;;9.45;;
43118;SDS011;28729;49.838;8.650;2024-01-15T00:08:43;41.13;;;10.93;;
43118;SDS011;28729;49.838;8.650;2024-01-15T00:16:48;38.35;;;10.90;;
43118;SDS011;28729;49.838;8.650;2024-01-15T00:20:52;47.25;;;14.30;;
43118;SDS011;28729;49.838;8.650;2024-01-15T00:24:54;39.63;;;11.83;;
43118;SDS011;28729;49.838;8.650;2024-01-15T00:28:56;44.65;;;11.77;;
43118;SDS011;28729;49.838;8.650;2024-01-15T00:32:57;41.93;;;12.90;;
43118;SDS011;28729;49.838;8.650;2024-01-15T00:36:59;39.95;;;12.48;;
43118;SDS011;28729;49.838;8.650;2024-01-15T00:41:01;27.27;;;10.10;;
43118;SDS011;28729;49.838;8.650;2024-01-15T00:49:12;36.20;;;11.98;;
43118;SDS011;28729;49.838;8.650;2024-01-15T00:53:17;30.25;;;11.77;;
43118;SDS011;28729;49.838;8.650;2024-01-15T00:57:19;35.38;;;12.43;;
43118;SDS011;28729;49.838;8.650;2024-01-15T01:01:21;30.23;;;10.98;;
43118;SDS011;28729;49.838;8.650;2024-01-15T01:09:27;38.60;;;11.02;;
43118;SDS011;28729;49.838;8.650;2024-01-15T01:13:31;37.20;;;11.55;;
43118;SDS011;28729;49.838;8.650;2024-01-15T01:17:33;31.00;;;10.45;;
43118;SDS011;28729;49.838;8.650;2024-01-15T01:21:35;35.75;;;11.23;;
43118;SDS011;28729;49.838;8.650;2024-01-15T01:25:37;31.17;;;10.07;;
43118;SDS011;28729;49.838;8.650;2024-01-15T01:29:39;22.50;;;8.27;;
43118;SDS011;28729;49.838;8.650;2024-01-15T01:33:41;37.03;;;12.77;;
43118;SDS011;28729;49.838;8.650;2024-01-15T01:37:42;38.03;;;11.45;;
43118;SDS011;28729;49.838;8.650;2024-01-15T01:41:45;29.38;;;10.68;;
43118;SDS011;28729;49.838;8.650;2024-01-15T01:45:48;40.55;;;11.85;;
43118;SDS011;28729;49.838;8.650;2024-01-15T01:49:51;30.85;;;9.23;;
43118;SDS011;28729;49.838;8.650;2024-01-15T01:53:52;34.93;;;11.73;;
43118;SDS011;28729;49.838;8.650;2024-01-15T01:57:54;31.98;;;11.48;;
43118;SDS011;28729;49.838;8.650;2024-01-15T02:01:57;24.98;;;9.13;;
43118;SDS011;28729;49.838;8.650;2024-01-15T02:06:02;30.23;;;9.27;;
43118;SDS011;28729;49.838;8.650;2024-01-15T02:14:08;33.10;;;10.05;;
43118;SDS011;28729;49.838;8.650;2024-01-15T02:18:13;31.65;;;9.68;;
43118;SDS011;28729;49.838;8.650;2024-01-15T02:22:15;33.83;;;10.85;;
43118;SDS011;28729;49.838;8.650;2024-01-15T02:26:16;25.35;;;9.50;;
43118;SDS011;28729;49.838;8.650;2024-01-15T02:30:19;26.58;;;10.13;;
43118;SDS011;28729;49.838;8.650;2024-01-15T02:34:21;35.50;;;10.00;;
43118;SDS011;28729;49.838;8.650;2024-01-15T02:38:25;28.92;;;9.52;;
43118;SDS011;28729;49.838;8.650;2024-01-15T02:42:28;30.38;;;9.10;;
43118;SDS011;28729;49.838;8.650;2024-01-15T02:46:30;30.57;;;10.43;;
43118;SDS011;28729;49.838;8.650;2024-01-15T02:50:34;24.40;;;8.63;;
43118;SDS011;28729;49.838;8.650;2024-01-15T02:54:37;21.15;;;7.95;;
43118;SDS011;28729;49.838;8.650;2024-01-15T02:58:38;25.23;;;9.98;;
43118;SDS011;28729;49.838;8.650;2024-01-15T03:02:44;30.92;;;10.02;;
43118;SDS011;28729;49.838;8.650;2024-01-15T03:06:49;33.50;;;10.48;;
43118;SDS011;28729;49.838;8.650;2024-01-15T03:10:52;23.70;;;8.35;;
43118;SDS011;28729;49.838;8.650;2024-01-15T03:14:53;27.47;;;9.43;;
43118;SDS011;28729;49.838;8.650;2024-01-15T03:18:55;30.02;;;10.70;;
43118;SDS011;28729;49.838;8.650;2024-01-15T03:22:58;24.55;;;9.05;;
43118;SDS011;28729;49.838;8.650;2024-01-15T03:27:04;32.95;;;9.32;;
43118;SDS011;28729;49.838;8.650;2024-01-15T03:31:07;25.73;;;9.02;;
43118;SDS011;28729;49.838;8.650;2024-01-15T03:35:10;30.17;;;9.55;;
43118;SDS011;28729;49.838;8.650;2024-01-15T03:39:12;39.17;;;11.02;;
43118;SDS011;28729;49.838;8.650;2024-01-15T03:43:15;27.73;;;9.07;;
43118;SDS011;28729;49.838;8.650;2024-01-15T03:47:17;27.17;;;9.83;;
43118;SDS011;28729;49.838;8.650;2024-01-15T03:51:20;21.10;;;7.03;;
43118;SDS011;28729;49.838;8.650;2024-01-15T03:55:23;26.38;;;9.60;;
43118;SDS011;28729;49.838;8.650;2024-01-15T03:59:24;30.27;;;8.70;;
43118;SDS011;28729;49.838;8.650;2024-01-15T04:03:28;28.30;;;8.95;;
43118;SDS011;28729;49.838;8.650;2024-01-15T04:07:30;26.83;;;9.07;;
43118;SDS011;28729;49.838;8.650;2024-01-15T04:11:33;32.40;;;10.07;;
43118;SDS011;28729;49.838;8.650;2024-01-15T04:15:35;29.30;;;11.15;;
43118;SDS011;28729;49.838;8.650;2024-01-15T04:19:38;30.00;;;10.00;;
43118;SDS011;28729;49.838;8.650;2024-01-15T04:23:40;25.65;;;8.50;;
43118;SDS011;28729;49.838;8.650;2024-01-15T04:27:42;24.55;;;9.50;;
43118;SDS011;28729;49.838;8.650;2024-01-15T04:31:44;18.10;;;7.03;;
43118;SDS011;28729;49.838;8.650;2024-01-15T04:35:48;28.60;;;9.63;;
43118;SDS011;28729;49.838;8.650;2024-01-15T04:39:50;33.65;;;10.60;;
43118;SDS011;28729;49.838;8.650;2024-01-15T04:44:00;32.03;;;9.73;;
43118;SDS011;28729;49.838;8.650;2024-01-15T04:48:03;27.13;;;9.30;;
43118;SDS011;28729;49.838;8.650;2024-01-15T04:52:06;25.17;;;8.88;;
43118;SDS011;28729;49.838;8.650;2024-01-15T04:56:09;25.27;;;8.15;;
43118;SDS011;28729;49.838;8.650;2024-01-15T05:00:11;24.60;;;6.87;;
43118;SDS011;28729;49.838;8.650;2024-01-15T05:04:14;27.38;;;10.75;;
43118;SDS011;28729;49.838;8.650;2024-01-15T05:12:19;25.40;;;8.60;;
43118;SDS011;28729;49.838;8.650;2024-01-15T05:16:21;26.42;;;9.57;;
43118;SDS011;28729;49.838;8.650;2024-01-15T05:20:24;26.25;;;9.27;;
43118;SDS011;28729;49.838;8.650;2024-01-15T05:24:26;33.05;;;10.18;;
43118;SDS011;28729;49.838;8.650;2024-01-15T05:28:29;23.52;;;8.48;;
43118;SDS011;28729;49.838;8.650;2024-01-15T05:32:33;23.45;;;8.45;;
43118;SDS011;28729;49.838;8.650;2024-01-15T05:40:38;20.75;;;7.32;;
43118;SDS011;28729;49.838;8.650;2024-01-15T05:44:40;30.33;;;9.38;;
43118;SDS011;28729;49.838;8.650;2024-01-15T05:48:42;23.98;;;7.95;;
43118;SDS011;28729;49.838;8.650;2024-01-15T05:52:45;23.40;;;7.65;;
43118;SDS011;28729;49.838;8.650;2024-01-15T05:56:49;29.80;;;9.43;;
43118;SDS011;28729;49.838;8.650;2024-01-15T06:00:51;25.00;;;7.93;;
43118;SDS011;28729;49.838;8.650;2024-01-15T06:04:53;29.27;;;9.63;;
43118;SDS011;28729;49.838;8.650;2024-01-15T06:08:55;27.53;;;9.10;;
43118;SDS011;28729;49.838;8.650;2024-01-15T06:13:02;29.00;;;9.07;;
43118;SDS011;28729;49.838;8.650;2024-01-15T06:17:04;25.33;;;9.10;;
43118;SDS011;28729;49.838;8.650;2024-01-15T06:21:06;26.00;;;7.93;;
43118;SDS011;28729;49.838;8.650;2024-01-15T06:25:08;21.93;;;8.13;;
43118;SDS011;28729;49.838;8.650;2024-01-15T06:29:16;21.58;;;8.75;;
43118;SDS011;28729;49.838;8.650;2024-01-15T06:33:18;27.53;;;8.67;;
43118;SDS011;28729;49.838;8.650;2024-01-15T06:37:20;27.55;;;9.57;;
43118;SDS011;28729;49.838;8.650;2024-01-15T06:41:22;29.63;;;9.57;;
43118;SDS011;28729;49.838;8.650;2024-01-15T06:45:24;21.77;;;8.35;;
43118;SDS011;28729;49.838;8.650;2024-01-15T06:49:26;26.87;;;8.73;;
43118;SDS011;28729;49.838;8.650;2024-01-15T06:53:28;27.88;;;9.40;;
43118;SDS011;28729;49.838;8.650;2024-01-15T06:57:29;25.30;;;8.50;;
43118;SDS011;28729;49.838;8.650;2024-01-15T07:01:31;25.02;;;8.52;;
43118;SDS011;28729;49.838;8.650;2024-01-15T07:05:34;25.60;;;8.05;;
43118;SDS011;28729;49.838;8.650;2024-01-15T07:09:37;24.27;;;8.60;;
43118;SDS011;28729;49.838;8.650;2024-01-15T07:13:39;25.33;;;9.07;;
43118;SDS011;28729;49.838;8.650;2024-01-15T07:17:43;24.00;;;9.65;;
43118;SDS011;28729;49.838;8.650;2024-01-15T07:21:46;30.55;;;9.30;;
43118;SDS011;28729;49.838;8.650;2024-01-15T07:25:48;22.23;;;9.57;;
43118;SDS011;28729;49.838;8.650;2024-01-15T07:29:50;22.65;;;8.18;;
43118;SDS011;28729;49.838;8.650;2024-01-15T07:33:52;26.60;;;8.67;;
43118;SDS011;28729;49.838;8.650;2024-01-15T07:37:57;29.30;;;10.75;;
43118;SDS011;28729;49.838;8.650;2024-01-15T07:42:00;22.00;;;8.60;;
43118;SDS011;28729;49.838;8.650;2024-01-15T07:46:02;24.80;;;10.45;;
43118;SDS011;28729;49.838;8.650;2024-01-15T07:50:06;29.15;;;9.52;;
43118;SDS011;28729;49.838;8.650;2024-01-15T07:54:09;23.70;;;9.85;;
43118;SDS011;28729;49.838;8.650;2024-01-15T07:58:14;25.45;;;10.48;;
43118;SDS011;28729;49.838;8.650;2024-01-15T08:02:18;30.65;;;10.07;;
43118;SDS011;28729;49.838;8.650;2024-01-15T08:06:21;28.15;;;9.65;;
43118;SDS011;28729;49.838;8.650;2024-01-15T08:10:23;28.55;;;9.60;;
43118;SDS011;28729;49.838;8.650;2024-01-15T08:14:25;25.63;;;9.27;;
43118;SDS011;28729;49.838;8.650;2024-01-15T08:22:30;24.90;;;9.98;;
43118;SDS011;28729;49.838;8.650;2024-01-15T08:26:34;29.80;;;9.98;;
43118;SDS011;28729;49.838;8.650;2024-01-15T08:30:39;23.02;;;9.55;;
43118;SDS011;28729;49.838;8.650;2024-01-15T08:34:42;29.83;;;9.15;;
43118;SDS011;28729;49.838;8.650;2024-01-15T08:38:45;20.98;;;8.40;;
43118;SDS011;28729;49.838;8.650;2024-01-15T08:42:49;20.30;;;8.48;;
43118;SDS011;28729;49.838;8.650;2024-01-15T08:46:50;21.67;;;8.67;;
43118;SDS011;28729;49.838;8.650;2024-01-15T08:54:56;25.65;;;8.80;;
43118;SDS011;28729;49.838;8.650;2024-01-15T08:59:00;27.13;;;10.20;;
43118;SDS011;28729;49.838;8.650;2024-01-15T09:03:02;26.50;;;9.27;;
43118;SDS011;28729;49.838;8.650;2024-01-15T09:07:05;24.90;;;10.38;;
43118;SDS011;28729;49.838;8.650;2024-01-15T09:11:08;31.30;;;9.93;;
43118;SDS011;28729;49.838;8.650;2024-01-15T09:15:10;25.55;;;9.35;;
43118;SDS011;28729;49.838;8.650;2024-01-15T09:19:12;22.93;;;8.60;;
43118;SDS011;28729;49.838;8.650;2024-01-15T09:23:14;26.47;;;9.90;;
43118;SDS011;28729;49.838;8.650;2024-01-15T09:27:16;26.67;;;9.27;;
43118;SDS011;28729;49.838;8.650;2024-01-15T09:31:18;23.10;;;9.80;;
43118;SDS011;28729;49.838;8.650;2024-01-15T09:35:21;28.88;;;9.80;;
43118;SDS011;28729;49.838;8.650;2024-01-15T09:39:27;30.65;;;10.60;;
43118;SDS011;28729;49.838;8.650;2024-01-15T09:43:28;28.48;;;9.90;;
43118;SDS011;28729;49.838;8.650;2024-01-15T09:47:30;29.07;;;9.77;;
43118;SDS011;28729;49.838;8.650;2024-01-15T09:51:32;23.63;;;9.37;;
43118;SDS011;28729;49.838;8.650;2024-01-15T09:55:36;24.27;;;9.82;;
43118;SDS011;28729;49.838;8.650;2024-01-15T09:59:40;18.95;;;9.43;;
43118;SDS011;28729;49.838;8.650;2024-01-15T10:03:45;25.77;;;9.82;;
43118;SDS011;28729;49.838;8.650;2024-01-15T10:07:48;24.60;;;9.75;;
43118;SDS011;28729;49.838;8.650;2024-01-15T10:11:54;26.88;;;8.90;;
43118;SDS011;28729;49.838;8.650;2024-01-15T10:15:56;25.87;;;9.23;;
43118;SDS011;28729;49.838;8.650;2024-01-15T10:19:59;28.40;;;9.70;;
43118;SDS011;28729;49.838;8.650;2024-01-15T10:24:03;27.05;;;10.55;;
43118;SDS011;28729;49.838;8.650;2024-01-15T10:28:05;30.20;;;11.57;;
43118;SDS011;28729;49.838;8.650;2024-01-15T10:32:09;30.10;;;10.35;;
43118;SDS011;28729;49.838;8.650;2024-01-15T10:36:11;15.67;;;7.00;;
43118;SDS011;28729;49.838;8.650;2024-01-15T10:40:13;16.03;;;6.13;;
43118;SDS011;28729;49.838;8.650;2024-01-15T10:44:15;23.63;;;8.90;;
43118;SDS011;28729;49.838;8.650;2024-01-15T10:48:18;21.02;;;8.77;;
43118;SDS011;28729;49.838;8.650;2024-01-15T10:52:25;25.80;;;10.02;;
43118;SDS011;28729;49.838;8.650;2024-01-15T10:56:27;23.33;;;9.00;;
43118;SDS011;28729;49.838;8.650;2024-01-15T11:00:36;23.00;;;8.45;;
43118;SDS011;28729;49.838;8.650;2024-01-15T11:04:39;23.50;;;8.57;;
43118;SDS011;28729;49.838;8.650;2024-01-15T11:08:42;29.90;;;10.40;;
43118;SDS011;28729;49.838;8.650;2024-01-15T11:12:44;22.27;;;9.50;;
43118;SDS011;28729;49.838;8.650;2024-01-15T11:16:54;20.00;;;9.57;;
43118;SDS011;28729;49.838;8.650;2024-01-15T11:25:21;19.13;;;9.00;;
43118;SDS011;28729;49.838;8.650;2024-01-15T11:33:34;20.27;;;7.72;;
43118;SDS011;28729;49.838;8.650;2024-01-15T11:41:57;18.83;;;6.25;;
43118;SDS011;28729;49.838;8.650;2024-01-15T11:46:01;17.55;;;6.65;;
43118;SDS011;28729;49.838;8.650;2024-01-15T11:50:05;20.27;;;7.82;;
43118;SDS011;28729;49.838;8.650;2024-01-15T11:54:09;19.98;;;7.05;;
43118;SDS011;28729;49.838;8.650;2024-01-15T11:58:16;16.67;;;7.55;;
43118;SDS011;28729;49.838;8.650;2024-01-15T12:02:18;18.42;;;8.13;;
43118;SDS011;28729;49.838;8.650;2024-01-15T12:06:20;13.83;;;7.07;;
43118;SDS011;28729;49.838;8.650;2024-01-15T12:10:26;16.67;;;7.13;;
43118;SDS011;28729;49.838;8.650;2024-01-15T12:14:28;14.40;;;6.50;;
43118;SDS011;28729;49.838;8.650;2024-01-15T12:18:31;18.08;;;6.68;;
43118;SDS011;28729;49.838;8.650;2024-01-15T12:22:35;17.30;;;7.25;;
43118;SDS011;28729;49.838;8.650;2024-01-15T12:26:57;16.50;;;6.40;;
43118;SDS011;28729;49.838;8.650;2024-01-15T12:30:59;21.03;;;6.70;;
43118;SDS011;28729;49.838;8.650;2024-01-15T12:39:05;19.70;;;7.05;;
43118;SDS011;28729;49.838;8.650;2024-01-15T12:43:07;15.27;;;6.47;;
43118;SDS011;28729;49.838;8.650;2024-01-15T12:47:10;19.55;;;8.52;;
43118;SDS011;28729;49.838;8.650;2024-01-15T12:55:17;17.85;;;7.00;;
43118;SDS011;28729;49.838;8.650;2024-01-15T12:59:20;16.30;;;6.43;;
43118;SDS011;28729;49.838;8.650;2024-01-15T13:03:22;14.25;;;6.13;;
43118;SDS011;28729;49.838;8.650;2024-01-15T13:11:27;14.18;;;5.85;;
43118;SDS011;28729;49.838;8.650;2024-01-15T13:15:29;15.27;;;6.35;;
43118;SDS011;28729;49.838;8.650;2024-01-15T13:19:31;11.47;;;4.97;;
43118;SDS011;28729;49.838;8.650;2024-01-15T13:23:34;11.38;;;4.82;;
43118;SDS011;28729;49.838;8.650;2024-01-15T13:27:36;14.87;;;5.53;;
43118;SDS011;28729;49.838;8.650;2024-01-15T13:31:41;14.38;;;6.05;;
43118;SDS011;28729;49.838;8.650;2024-01-15T13:35:44;9.63;;;4.55;;
43118;SDS011;28729;49.838;8.650;2024-01-15T13:39:46;15.30;;;5.63;;
43118;SDS011;28729;49.838;8.650;2024-01-15T13:43:48;11.77;;;4.78;;
43118;SDS011;28729;49.838;8.650;2024-01-15T13:47:51;16.40;;;6.20;;
43118;SDS011;28729;49.838;8.650;2024-01-15T13:51:55;13.23;;;5.88;;
43118;SDS011;28729;49.838;8.650;2024-01-15T13:55:57;11.57;;;5.50;;
43118;SDS011;28729;49.838;8.650;2024-01-15T13:59:59;11.70;;;5.45;;
43118;SDS011;28729;49.838;8.650;2024-01-15T14:04:01;15.85;;;5.65;;
43118;SDS011;28729;49.838;8.650;2024-01-15T14:08:03;18.63;;;6.33;;
43118;SDS011;28729;49.838;8.650;2024-01-15T14:12:05;12.60;;;5.27;;
43118;SDS011;28729;49.838;8.650;2024-01-15T14:16:07;11.63;;;4.97;;
43118;SDS011;28729;49.838;8.650;2024-01-15T14:20:11;11.68;;;6.50;;
43118;SDS011;28729;49.838;8.650;2024-01-15T14:24:14;11.32;;;5.10;;
43118;SDS011;28729;49.838;8.650;2024-01-15T14:28:18;18.63;;;6.45;;
43118;SDS011;28729;49.838;8.650;2024-01-15T14:32:20;16.27;;;8.00;;
43118;SDS011;28729;49.838;8.650;2024-01-15T14:36:22;15.83;;;5.77;;
43118;SDS011;28729;49.838;8.650;2024-01-15T14:40:25;12.07;;;5.40;;
43118;SDS011;28729;49.838;8.650;2024-01-15T14:44:27;8.73;;;4.25;;
43118;SDS011;28729;49.838;8.650;2024-01-15T14:48:32;10.30;;;3.67;;
43118;SDS011;28729;49.838;8.650;2024-01-15T14:52:34;10.63;;;3.90;;
43118;SDS011;28729;49.838;8.650;2024-01-15T14:56:35;10.18;;;3.20;;
43118;SDS011;28729;49.838;8.650;2024-01-15T15:00:37;5.22;;;2.47;;
43118;SDS011;28729;49.838;8.650;2024-01-15T15:04:40;5.50;;;2.58;;
43118;SDS011;28729;49.838;8.650;2024-01-15T15:08:46;7.05;;;2.92;;
43118;SDS011;28729;49.838;8.650;2024-01-15T15:12:48;8.77;;;3.10;;
43118;SDS011;28729;49.838;8.650;2024-01-15T15:16:50;4.80;;;2.10;;
43118;SDS011;28729;49.838;8.650;2024-01-15T15:20:52;6.47;;;3.50;;
43118;SDS011;28729;49.838;8.650;2024-01-15T15:24:57;9.07;;;4.85;;
43118;SDS011;28729;49.838;8.650;2024-01-15T15:28:59;5.57;;;2.30;;
43118;SDS011;28729;49.838;8.650;2024-01-15T15:33:01;5.40;;;2.70;;
43118;SDS011;28729;49.838;8.650;2024-01-15T15:37:05;5.40;;;2.60;;
43118;SDS011;28729;49.838;8.650;2024-01-15T15:41:11;8.63;;;2.83;;
43118;SDS011;28729;49.838;8.650;2024-01-15T15:45:13;9.82;;;2.92;;
43118;SDS011;28729;49.838;8.650;2024-01-15T15:49:15;7.20;;;2.25;;
43118;SDS011;28729;49.838;8.650;2024-01-15T15:53:18;6.03;;;2.63;;
43118;SDS011;28729;49.838;8.650;2024-01-15T15:57:22;4.32;;;2.22;;
43118;SDS011;28729;49.838;8.650;2024-01-15T16:01:25;7.03;;;2.97;;
43118;SDS011;28729;49.838;8.650;2024-01-15T16:05:27;8.43;;;2.57;;
43118;SDS011;28729;49.838;8.650;2024-01-15T16:09:43;10.10;;;2.85;;
43118;SDS011;28729;49.838;8.650;2024-01-15T16:13:46;6.20;;;2.83;;
43118;SDS011;28729;49.838;8.650;2024-01-15T16:17:49;7.82;;;3.13;;
43118;SDS011;28729;49.838;8.650;2024-01-15T16:22:12;7.40;;;3.28;;
43118;SDS011;28729;49.838;8.650;2024-01-15T16:26:34;5.47;;;2.30;;
43118;SDS011;28729;49.838;8.650;2024-01-15T16:30:37;8.80;;;2.60;;
43118;SDS011;28729;49.838;8.650;2024-01-15T16:34:48;5.32;;;2.35;;
43118;SDS011;28729;49.838;8.650;2024-01-15T16:38:54;4.22;;;2.53;;
43118;SDS011;28729;49.838;8.650;2024-01-15T16:42:56;6.97;;;2.53;;
43118;SDS011;28729;49.838;8.650;2024-01-15T16:46:57;10.57;;;3.63;;
43118;SDS011;28729;49.838;8.650;2024-01-15T16:51:09;9.20;;;3.15;;
43118;SDS011;28729;49.838;8.650;2024-01-15T16:55:12;8.32;;;3.45;;
43118;SDS011;28729;49.838;8.650;2024-01-15T16:59:15;8.73;;;3.20;;
43118;SDS011;28729;49.838;8.650;2024-01-15T17:03:17;6.43;;;2.75;;
43118;SDS011;28729;49.838;8.650;2024-01-15T17:07:19;8.23;;;3.72;;
43118;SDS011;28729;49.838;8.650;2024-01-15T17:11:21;5.68;;;3.00;;
43118;SDS011;28729;49.838;8.650;2024-01-15T17:15:23;6.43;;;2.85;;
43118;SDS011;28729;49.838;8.650;2024-01-15T17:23:30;8.32;;;3.17;;
43118;SDS011;28729;49.838;8.650;2024-01-15T17:27:34;9.43;;;3.35;;
43118;SDS011;28729;49.838;8.650;2024-01-15T17:31:36;7.00;;;2.40;;
43118;SDS011;28729;49.838;8.650;2024-01-15T17:35:53;7.18;;;3.67;;
43118;SDS011;28729;49.838;8.650;2024-01-15T17:40:04;7.68;;;3.10;;
43118;SDS011;28729;49.838;8.650;2024-01-15T17:44:07;6.88;;;2.70;;
43118;SDS011;28729;49.838;8.650;2024-01-15T17:48:09;5.63;;;2.30;;
43118;SDS011;28729;49.838;8.650;2024-01-15T17:52:12;6.15;;;2.25;;
43118;SDS011;28729;49.838;8.650;2024-01-15T17:56:15;5.17;;;1.87;;
43118;SDS011;28729;49.838;8.650;2024-01-15T18:00:18;7.53;;;2.53;;
43118;SDS011;28729;49.838;8.650;2024-01-15T18:04:20;5.38;;;2.42;;
43118;SDS011;28729;49.838;8.650;2024-01-15T18:08:26;5.10;;;2.17;;
43118;SDS011;28729;49.838;8.650;2024-01-15T18:12:28;4.50;;;2.30;;
43118;SDS011;28729;49.838;8.650;2024-01-15T18:16:30;5.72;;;2.20;;
43118;SDS011;28729;49.838;8.650;2024-01-15T18:20:34;8.85;;;1.80;;
43118;SDS011;28729;49.838;8.650;2024-01-15T18:24:37;8.52;;;2.75;;
43118;SDS011;28729;49.838;8.650;2024-01-15T18:28:41;12.27;;;2.72;;
43118;SDS011;28729;49.838;8.650;2024-01-15T18:32:43;4.05;;;2.05;;
43118;SDS011;28729;49.838;8.650;2024-01-15T18:36:45;3.92;;;1.58;;
43118;SDS011;28729;49.838;8.650;2024-01-15T18:40:49;4.95;;;1.92;;
43118;SDS011;28729;49.838;8.650;2024-01-15T18:44:51;8.57;;;2.63;;
43118;SDS011;28729;49.838;8.650;2024-01-15T18:48:53;4.18;;;2.08;;
43118;SDS011;28729;49.838;8.650;2024-01-15T18:52:56;6.03;;;1.92;;
43118;SDS011;28729;49.838;8.650;2024-01-15T18:56:59;2.88;;;1.52;;
43118;SDS011;28729;49.838;8.650;2024-01-15T19:01:02;8.70;;;2.03;;
43118;SDS011;28729;49.838;8.650;2024-01-15T19:05:05;3.40;;;1.55;;
43118;SDS011;28729;49.838;8.650;2024-01-15T19:09:11;5.07;;;1.70;;
43118;SDS011;28729;49.838;8.650;2024-01-15T19:13:13;5.67;;;1.63;;
43118;SDS011;28729;49.838;8.650;2024-01-15T19:17:14;3.50;;;1.73;;
43118;SDS011;28729;49.838;8.650;2024-01-15T19:21:18;5.97;;;2.63;;
43118;SDS011;28729;49.838;8.650;2024-01-15T19:25:20;4.35;;;2.33;;
43118;SDS011;28729;49.838;8.650;2024-01-15T19:29:22;4.53;;;1.77;;
43118;SDS011;28729;49.838;8.650;2024-01-15T19:33:24;6.47;;;2.07;;
43118;SDS011;28729;49.838;8.650;2024-01-15T19:37:26;5.20;;;2.20;;
43118;SDS011;28729;49.838;8.650;2024-01-15T19:41:31;3.97;;;1.73;;
43118;SDS011;28729;49.838;8.650;2024-01-15T19:45:36;3.47;;;1.63;;
43118;SDS011;28729;49.838;8.650;2024-01-15T19:49:45;4.13;;;2.15;;
43118;SDS011;28729;49.838;8.650;2024-01-15T19:53:49;3.88;;;2.60;;
43118;SDS011;28729;49.838;8.650;2024-01-15T19:57:51;4.15;;;1.98;;
43118;SDS011;28729;49.838;8.650;2024-01-15T20:01:53;9.30;;;2.03;;
43118;SDS011;28729;49.838;8.650;2024-01-15T20:05:55;4.37;;;1.90;;
43118;SDS011;28729;49.838;8.650;2024-01-15T20:09:58;5.13;;;1.98;;
43118;SDS011;28729;49.838;8.650;2024-01-15T20:14:00;11.90;;;2.43;;
43118;SDS011;28729;49.838;8.650;2024-01-15T20:18:01;2.70;;;1.93;;
43118;SDS011;28729;49.838;8.650;2024-01-15T20:22:05;10.45;;;1.92;;
43118;SDS011;28729;49.838;8.650;2024-01-15T20:26:10;5.07;;;2.15;;
43118;SDS011;28729;49.838;8.650;2024-01-15T20:30:12;5.20;;;1.90;;
43118;SDS011;28729;49.838;8.650;2024-01-15T20:34:14;4.78;;;1.60;;
43118;SDS011;28729;49.838;8.650;2024-01-15T20:38:17;7.38;;;2.42;;
43118;SDS011;28729;49.838;8.650;2024-01-15T20:42:19;7.15;;;2.75;;
43118;SDS011;28729;49.838;8.650;2024-01-15T20:46:25;4.47;;;2.30;;
43118;SDS011;28729;49.838;8.650;2024-01-15T20:50:29;5.72;;;2.75;;
43118;SDS011;28729;49.838;8.650;2024-01-15T20:54:30;4.57;;;2.05;;
43118;SDS011;28729;49.838;8.650;2024-01-15T20:58:32;5.80;;;2.60;;
43118;SDS011;28729;49.838;8.650;2024-01-15T21:02:35;5.25;;;2.47;;
43118;SDS011;28729;49.838;8.650;2024-01-15T21:06:42;5.10;;;2.47;;
43118;SDS011;28729;49.838;8.650;2024-01-15T21:10:44;4.35;;;1.85;;
43118;SDS011;28729;49.838;8.650;2024-01-15T21:14:46;4.97;;;3.10;;
43118;SDS011;28729;49.838;8.650;2024-01-15T21:18:47;8.10;;;2.80;;
43118;SDS011;28729;49.838;8.650;2024-01-15T21:22:52;6.50;;;3.00;;
43118;SDS011;28729;49.838;8.650;2024-01-15T21:26:54;5.77;;;2.97;;
43118;SDS011;28729;49.838;8.650;2024-01-15T21:30:58;6.78;;;2.83;;
43118;SDS011;28729;49.838;8.650;2024-01-15T21:35:09;6.97;;;3.20;;
43118;SDS011;28729;49.838;8.650;2024-01-15T21:39:12;6.15;;;2.60;;
43118;SDS011;28729;49.838;8.650;2024-01-15T21:43:21;6.93;;;3.40;;
43118;SDS011;28729;49.838;8.650;2024-01-15T21:47:24;9.02;;;3.17;;
43118;SDS011;28729;49.838;8.650;2024-01-15T21:51:28;6.32;;;3.25;;
43118;SDS011;28729;49.838;8.650;2024-01-15T21:55:30;5.53;;;3.03;;
43118;SDS011;28729;49.838;8.650;2024-01-15T21:59:32;6.40;;;3.05;;
43118;SDS011;28729;49.838;8.650;2024-01-15T22:03:34;4.78;;;2.85;;
43118;SDS011;28729;49.838;8.650;2024-01-15T22:07:39;4.90;;;2.93;;
43118;SDS011;28729;49.838;8.650;2024-01-15T22:11:44;7.72;;;3.30;;
43118;SDS011;28729;49.838;8.650;2024-01-15T22:15:47;8.95;;;3.25;;
43118;SDS011;28729;49.838;8.650;2024-01-15T22:19:56;6.47;;;2.97;;
43118;SDS011;28729;49.838;8.650;2024-01-15T22:23:58;5.47;;;2.72;;
43118;SDS011;28729;49.838;8.650;2024-01-15T22:28:03;6.55;;;3.08;;
43118;SDS011;28729;49.838;8.650;2024-01-15T22:32:06;4.57;;;2.78;;
43118;SDS011;28729;49.838;8.650;2024-01-15T22:36:14;9.18;;;3.17;;
43118;SDS011;28729;49.838;8.650;2024-01-15T22:40:16;10.73;;;2.95;;
43118;SDS011;28729;49.838;8.650;2024-01-15T22:48:21;6.15;;;2.92;;
43118;SDS011;28729;49.838;8.650;2024-01-15T22:52:24;5.25;;;2.65;;
43118;SDS011;28729;49.838;8.650;2024-01-15T22:56:27;7.28;;;4.05;;
43118;SDS011;28729;49.838;8.650;2024-01-15T23:00:29;8.27;;;3.07;;
43118;SDS011;28729;49.838;8.650;2024-01-15T23:04:32;7.03;;;3.30;;
43118;SDS011;28729;49.838;8.650;2024-01-15T23:08:37;7.90;;;3.40;;
43118;SDS011;28729;49.838;8.650;2024-01-15T23:12:40;6.63;;;3.00;;
43118;SDS011;28729;49.838;8.650;2024-01-15T23:16:43;7.32;;;3.78;;
43118;SDS011;28729;49.838;8.650;2024-01-15T23:20:45;12.25;;;3.55;;
43118;SDS011;28729;49.838;8.650;2024-01-15T23:24:47;5.28;;;3.50;;
43118;SDS011;28729;49.838;8.650;2024-01-15T23:28:50;5.15;;;2.97;;
43118;SDS011;28729;49.838;8.650;2024-01-15T23:32:51;5.23;;;3.07;;
43118;SDS011;28729;49.838;8.650;2024-01-15T23:36:53;4.80;;;3.30;;
43118;SDS011;28729;49.838;8.650;2024-01-15T23:40:55;7.97;;;3.30;;
43118;SDS011;28729;49.838;8.650;2024-01-15T23:44:57;6.80;;;2.72;;
43118;SDS011;28729;49.838;8.650;2024-01-15T23:48:59;7.80;;;3.03;;
43118;SDS011;28729;49.838;8.650;2024-01-15T23:53:01;8.27;;;3.90;;
43118;SDS011;28729;49.838;8.650;2024-01-15T23:57:03;11.60;;;3.37;;
